sensor_id;sensor_type;location;lat;lon;timestamp;temperature;humidity
69359;HTU21D;56520;49.066;8.660;2023-04-01T00:02:17;10.67;71.95
69359;HTU21D;56520;49.066;8.660;2023-04-01T00:04:42;10.56;73.17
69359;HTU21D;56520;49.066;8.660;2023-04-01T00:07:08;10.36;74.02
69359;HTU21D;56520;49.066;8.660;2023-04-01T00:09:34;10.18;74.75
69359;HTU21D;56520;49.066;8.660;2023-04-01T00:12:00;10.33;73.97
69359;HTU21D;56520;49.066;8.660;2023-04-01T00:14:25;10.38;74.04
69359;HTU21D;56520;49.066;8.660;2023-04-01T00:16:51;10.28;74.76
69359;HTU21D;56520;49.066;8.660;2023-04-01T00:19:17;10.29;74.89
69359;HTU21D;56520;49.066;8.660;2023-04-01T00:21:43;10.25;74.99
69359;HTU21D;56520;49.066;8.660;2023-04-01T00:24:08;10.35;74.09
69359;HTU21D;56520;49.066;8.660;2023-04-01T00:26:33;10.31;74.71
69359;HTU21D;56520;49.066;8.660;2023-04-01T00:28:59;10.30;74.82
69359;HTU21D;56520;49.066;8.660;2023-04-01T00:31:25;10.30;74.96
69359;HTU21D;56520;49.066;8.660;2023-04-01T00:33:51;10.38;74.50
69359;HTU21D;56520;49.066;8.660;2023-04-01T00:36:19;10.37;74.67
69359;HTU21D;56520;49.066;8.660;2023-04-01T00:38:47;10.38;74.33
69359;HTU21D;56520;49.066;8.660;2023-04-01T00:41:13;10.27;75.16
69359;HTU21D;56520;49.066;8.660;2023-04-01T00:43:46;10.20;75.72
69359;HTU21D;56520;49.066;8.660;2023-04-01T00:46:11;10.30;75.19
69359;HTU21D;56520;49.066;8.660;2023-04-01T00:48:40;10.29;75.12
69359;HTU21D;56520;49.066;8.660;2023-04-01T00:51:16;10.45;74.62
69359;HTU21D;56520;49.066;8.660;2023-04-01T00:53:45;10.45;74.51
69359;HTU21D;56520;49.066;8.660;2023-04-01T00:56:27;10.50;74.21
69359;HTU21D;56520;49.066;8.660;2023-04-01T00:59:00;10.56;73.88
69359;HTU21D;56520;49.066;8.660;2023-04-01T01:01:27;10.50;74.18
69359;HTU21D;56520;49.066;8.660;2023-04-01T01:03:54;10.45;74.39
69359;HTU21D;56520;49.066;8.660;2023-04-01T01:12:13;10.29;74.92
69359;HTU21D;56520;49.066;8.660;2023-04-01T01:14:51;10.26;75.21
69359;HTU21D;56520;49.066;8.660;2023-04-01T01:23:12;10.44;73.99
69359;HTU21D;56520;49.066;8.660;2023-04-01T01:31:03;10.63;72.94
69359;HTU21D;56520;49.066;8.660;2023-04-01T01:33:47;10.50;73.73
69359;HTU21D;56520;49.066;8.660;2023-04-01T01:36:14;10.55;73.01
69359;HTU21D;56520;49.066;8.660;2023-04-01T01:38:41;10.56;73.96
69359;HTU21D;56520;49.066;8.660;2023-04-01T01:41:07;10.51;74.45
69359;HTU21D;56520;49.066;8.660;2023-04-01T01:43:40;10.51;74.28
69359;HTU21D;56520;49.066;8.660;2023-04-01T01:46:16;10.50;75.83
69359;HTU21D;56520;49.066;8.660;2023-04-01T01:48:43;10.29;77.20
69359;HTU21D;56520;49.066;8.660;2023-04-01T01:51:09;10.15;77.42
69359;HTU21D;56520;49.066;8.660;2023-04-01T01:53:35;10.05;77.51
69359;HTU21D;56520;49.066;8.660;2023-04-01T01:56:02;10.18;76.73
69359;HTU21D;56520;49.066;8.660;2023-04-01T01:58:32;10.11;78.05
69359;HTU21D;56520;49.066;8.660;2023-04-01T02:01:03;10.03;78.30
69359;HTU21D;56520;49.066;8.660;2023-04-01T02:03:33;10.01;78.45
69359;HTU21D;56520;49.066;8.660;2023-04-01T02:06:00;9.95;77.50
69359;HTU21D;56520;49.066;8.660;2023-04-01T02:08:49;9.92;77.72
69359;HTU21D;56520;49.066;8.660;2023-04-01T02:11:17;9.83;77.76
69359;HTU21D;56520;49.066;8.660;2023-04-01T02:13:56;9.91;77.15
69359;HTU21D;56520;49.066;8.660;2023-04-01T02:16:28;9.95;76.34
69359;HTU21D;56520;49.066;8.660;2023-04-01T02:18:56;10.04;75.21
69359;HTU21D;56520;49.066;8.660;2023-04-01T02:21:25;10.14;74.40
69359;HTU21D;56520;49.066;8.660;2023-04-01T02:23:53;10.11;74.93
69359;HTU21D;56520;49.066;8.660;2023-04-01T02:26:20;10.12;74.48
69359;HTU21D;56520;49.066;8.660;2023-04-01T02:28:46;10.13;74.35
69359;HTU21D;56520;49.066;8.660;2023-04-01T02:31:14;10.21;73.75
69359;HTU21D;56520;49.066;8.660;2023-04-01T02:33:40;10.22;73.02
69359;HTU21D;56520;49.066;8.660;2023-04-01T02:36:07;10.23;73.15
69359;HTU21D;56520;49.066;8.660;2023-04-01T02:38:35;10.19;72.80
69359;HTU21D;56520;49.066;8.660;2023-04-01T02:41:02;10.26;72.20
69359;HTU21D;56520;49.066;8.660;2023-04-01T02:43:28;10.16;72.94
69359;HTU21D;56520;49.066;8.660;2023-04-01T02:45:54;10.26;71.93
69359;HTU21D;56520;49.066;8.660;2023-04-01T02:48:19;10.22;71.92
69359;HTU21D;56520;49.066;8.660;2023-04-01T02:50:45;10.16;72.37
69359;HTU21D;56520;49.066;8.660;2023-04-01T02:53:10;10.19;71.70
69359;HTU21D;56520;49.066;8.660;2023-04-01T02:55:37;10.21;71.47
69359;HTU21D;56520;49.066;8.660;2023-04-01T02:58:02;10.27;70.61
69359;HTU21D;56520;49.066;8.660;2023-04-01T03:00:27;10.10;71.72
69359;HTU21D;56520;49.066;8.660;2023-04-01T03:02:53;10.01;71.90
69359;HTU21D;56520;49.066;8.660;2023-04-01T03:05:19;10.16;70.81
69359;HTU21D;56520;49.066;8.660;2023-04-01T03:07:45;10.16;70.60
69359;HTU21D;56520;49.066;8.660;2023-04-01T03:10:10;10.16;70.77
69359;HTU21D;56520;49.066;8.660;2023-04-01T03:12:36;10.03;71.51
69359;HTU21D;56520;49.066;8.660;2023-04-01T03:15:02;10.14;70.78
69359;HTU21D;56520;49.066;8.660;2023-04-01T03:17:28;10.12;71.16
69359;HTU21D;56520;49.066;8.660;2023-04-01T03:19:53;10.15;71.30
69359;HTU21D;56520;49.066;8.660;2023-04-01T03:22:19;10.11;71.74
69359;HTU21D;56520;49.066;8.660;2023-04-01T03:24:46;10.08;71.94
69359;HTU21D;56520;49.066;8.660;2023-04-01T03:27:12;10.12;71.51
69359;HTU21D;56520;49.066;8.660;2023-04-01T03:29:38;10.12;71.77
69359;HTU21D;56520;49.066;8.660;2023-04-01T03:32:04;10.12;72.06
69359;HTU21D;56520;49.066;8.660;2023-04-01T03:34:29;10.08;72.09
69359;HTU21D;56520;49.066;8.660;2023-04-01T03:36:55;10.22;71.22
69359;HTU21D;56520;49.066;8.660;2023-04-01T03:39:20;10.18;71.32
69359;HTU21D;56520;49.066;8.660;2023-04-01T03:41:46;10.15;71.78
69359;HTU21D;56520;49.066;8.660;2023-04-01T03:44:12;10.24;71.06
69359;HTU21D;56520;49.066;8.660;2023-04-01T03:46:37;10.23;70.98
69359;HTU21D;56520;49.066;8.660;2023-04-01T03:49:05;10.27;70.95
69359;HTU21D;56520;49.066;8.660;2023-04-01T03:51:36;10.20;71.11
69359;HTU21D;56520;49.066;8.660;2023-04-01T03:54:02;10.26;70.70
69359;HTU21D;56520;49.066;8.660;2023-04-01T03:56:27;10.26;70.98
69359;HTU21D;56520;49.066;8.660;2023-04-01T03:58:53;10.23;70.82
69359;HTU21D;56520;49.066;8.660;2023-04-01T04:01:20;10.26;70.41
69359;HTU21D;56520;49.066;8.660;2023-04-01T04:03:46;10.26;70.79
69359;HTU21D;56520;49.066;8.660;2023-04-01T04:06:16;10.20;71.16
69359;HTU21D;56520;49.066;8.660;2023-04-01T04:08:42;10.24;70.89
69359;HTU21D;56520;49.066;8.660;2023-04-01T04:11:08;10.29;70.46
69359;HTU21D;56520;49.066;8.660;2023-04-01T04:13:34;10.43;69.96
69359;HTU21D;56520;49.066;8.660;2023-04-01T04:15:59;10.36;70.27
69359;HTU21D;56520;49.066;8.660;2023-04-01T04:18:25;10.37;70.18
69359;HTU21D;56520;49.066;8.660;2023-04-01T04:20:50;10.29;70.87
69359;HTU21D;56520;49.066;8.660;2023-04-01T04:23:17;10.31;71.09
69359;HTU21D;56520;49.066;8.660;2023-04-01T04:25:57;10.35;70.45
69359;HTU21D;56520;49.066;8.660;2023-04-01T04:28:23;10.42;70.10
69359;HTU21D;56520;49.066;8.660;2023-04-01T04:30:48;10.46;70.07
69359;HTU21D;56520;49.066;8.660;2023-04-01T04:33:14;10.43;70.10
69359;HTU21D;56520;49.066;8.660;2023-04-01T04:35:39;10.54;69.67
69359;HTU21D;56520;49.066;8.660;2023-04-01T04:38:04;10.51;69.89
69359;HTU21D;56520;49.066;8.660;2023-04-01T04:40:30;10.58;69.20
69359;HTU21D;56520;49.066;8.660;2023-04-01T04:42:55;10.52;69.60
69359;HTU21D;56520;49.066;8.660;2023-04-01T04:45:20;10.55;69.55
69359;HTU21D;56520;49.066;8.660;2023-04-01T04:47:46;10.53;69.52
69359;HTU21D;56520;49.066;8.660;2023-04-01T04:50:11;10.53;69.25
69359;HTU21D;56520;49.066;8.660;2023-04-01T04:52:38;10.40;69.97
69359;HTU21D;56520;49.066;8.660;2023-04-01T04:55:03;10.44;69.68
69359;HTU21D;56520;49.066;8.660;2023-04-01T04:57:29;10.50;69.57
69359;HTU21D;56520;49.066;8.660;2023-04-01T04:59:54;10.45;69.67
69359;HTU21D;56520;49.066;8.660;2023-04-01T05:02:20;10.50;69.31
69359;HTU21D;56520;49.066;8.660;2023-04-01T05:04:45;10.57;68.80
69359;HTU21D;56520;49.066;8.660;2023-04-01T05:07:11;10.60;68.73
69359;HTU21D;56520;49.066;8.660;2023-04-01T05:09:36;10.38;70.33
69359;HTU21D;56520;49.066;8.660;2023-04-01T05:12:02;10.42;69.98
69359;HTU21D;56520;49.066;8.660;2023-04-01T05:14:27;10.41;69.73
69359;HTU21D;56520;49.066;8.660;2023-04-01T05:16:53;10.54;68.92
69359;HTU21D;56520;49.066;8.660;2023-04-01T05:19:19;10.65;68.62
69359;HTU21D;56520;49.066;8.660;2023-04-01T05:21:45;10.62;68.65
69359;HTU21D;56520;49.066;8.660;2023-04-01T05:24:10;10.57;69.13
69359;HTU21D;56520;49.066;8.660;2023-04-01T05:26:36;10.59;69.01
69359;HTU21D;56520;49.066;8.660;2023-04-01T05:29:04;10.60;68.81
69359;HTU21D;56520;49.066;8.660;2023-04-01T05:31:30;10.54;69.35
69359;HTU21D;56520;49.066;8.660;2023-04-01T05:33:56;10.53;69.57
69359;HTU21D;56520;49.066;8.660;2023-04-01T05:36:21;10.65;68.19
69359;HTU21D;56520;49.066;8.660;2023-04-01T05:38:47;10.62;68.88
69359;HTU21D;56520;49.066;8.660;2023-04-01T05:41:14;10.56;69.16
69359;HTU21D;56520;49.066;8.660;2023-04-01T05:43:40;10.60;69.32
69359;HTU21D;56520;49.066;8.660;2023-04-01T05:46:06;10.52;69.99
69359;HTU21D;56520;49.066;8.660;2023-04-01T05:48:33;10.54;70.38
69359;HTU21D;56520;49.066;8.660;2023-04-01T05:51:00;10.56;69.95
69359;HTU21D;56520;49.066;8.660;2023-04-01T05:53:25;10.63;69.71
69359;HTU21D;56520;49.066;8.660;2023-04-01T05:55:51;10.54;70.32
69359;HTU21D;56520;49.066;8.660;2023-04-01T05:58:16;10.51;71.56
69359;HTU21D;56520;49.066;8.660;2023-04-01T06:00:42;10.49;71.73
69359;HTU21D;56520;49.066;8.660;2023-04-01T06:03:07;10.38;72.59
69359;HTU21D;56520;49.066;8.660;2023-04-01T06:05:40;10.43;71.67
69359;HTU21D;56520;49.066;8.660;2023-04-01T06:08:11;10.42;71.67
69359;HTU21D;56520;49.066;8.660;2023-04-01T06:11:07;10.33;72.44
69359;HTU21D;56520;49.066;8.660;2023-04-01T06:14:31;10.26;73.06
69359;HTU21D;56520;49.066;8.660;2023-04-01T06:19:35;10.22;73.94
69359;HTU21D;56520;49.066;8.660;2023-04-01T06:32:40;10.04;76.34
69359;HTU21D;56520;49.066;8.660;2023-04-01T06:49:04;9.92;77.42
69359;HTU21D;56520;49.066;8.660;2023-04-01T06:57:02;10.08;76.28
69359;HTU21D;56520;49.066;8.660;2023-04-01T06:59:33;10.07;76.84
69359;HTU21D;56520;49.066;8.660;2023-04-01T07:02:13;10.01;78.16
69359;HTU21D;56520;49.066;8.660;2023-04-01T07:04:44;10.19;76.05
69359;HTU21D;56520;49.066;8.660;2023-04-01T07:07:24;10.15;77.18
69359;HTU21D;56520;49.066;8.660;2023-04-01T07:09:55;10.14;77.17
69359;HTU21D;56520;49.066;8.660;2023-04-01T07:17:39;10.18;77.25
69359;HTU21D;56520;49.066;8.660;2023-04-01T07:20:29;10.15;77.28
69359;HTU21D;56520;49.066;8.660;2023-04-01T07:23:02;10.13;78.02
69359;HTU21D;56520;49.066;8.660;2023-04-01T07:25:35;10.18;77.53
69359;HTU21D;56520;49.066;8.660;2023-04-01T07:28:10;10.13;78.70
69359;HTU21D;56520;49.066;8.660;2023-04-01T07:58:00;9.70;83.94
69359;HTU21D;56520;49.066;8.660;2023-04-01T08:00:54;9.56;84.29
69359;HTU21D;56520;49.066;8.660;2023-04-01T08:03:48;9.46;85.13
69359;HTU21D;56520;49.066;8.660;2023-04-01T08:17:19;9.48;84.81
69359;HTU21D;56520;49.066;8.660;2023-04-01T08:22:42;9.56;84.29
69359;HTU21D;56520;49.066;8.660;2023-04-01T08:25:16;9.70;82.48
69359;HTU21D;56520;49.066;8.660;2023-04-01T08:27:52;9.80;82.33
69359;HTU21D;56520;49.066;8.660;2023-04-01T08:30:24;9.84;82.66
69359;HTU21D;56520;49.066;8.660;2023-04-01T08:32:57;9.94;82.14
69359;HTU21D;56520;49.066;8.660;2023-04-01T08:35:37;10.00;81.49
69359;HTU21D;56520;49.066;8.660;2023-04-01T08:38:11;10.09;80.72
69359;HTU21D;56520;49.066;8.660;2023-04-01T08:40:59;10.25;78.63
69359;HTU21D;56520;49.066;8.660;2023-04-01T08:43:36;10.26;79.78
69359;HTU21D;56520;49.066;8.660;2023-04-01T08:59:57;11.16;77.11
69359;HTU21D;56520;49.066;8.660;2023-04-01T09:05:35;11.53;73.73
69359;HTU21D;56520;49.066;8.660;2023-04-01T09:13:45;11.75;72.63
69359;HTU21D;56520;49.066;8.660;2023-04-01T09:16:29;11.67;73.13
69359;HTU21D;56520;49.066;8.660;2023-04-01T09:49:29;11.26;75.37
69359;HTU21D;56520;49.066;8.660;2023-04-01T09:54:45;11.25;75.95
69359;HTU21D;56520;49.066;8.660;2023-04-01T10:11:49;11.72;73.45
69359;HTU21D;56520;49.066;8.660;2023-04-01T10:14:34;11.70;73.46
69359;HTU21D;56520;49.066;8.660;2023-04-01T10:23:21;12.01;73.86
69359;HTU21D;56520;49.066;8.660;2023-04-01T10:51:28;12.18;74.15
69359;HTU21D;56520;49.066;8.660;2023-04-01T10:54:45;12.30;74.31
69359;HTU21D;56520;49.066;8.660;2023-04-01T11:41:45;12.16;73.71
69359;HTU21D;56520;49.066;8.660;2023-04-01T11:44:19;12.12;74.75
69359;HTU21D;56520;49.066;8.660;2023-04-01T11:49:49;11.88;76.24
69359;HTU21D;56520;49.066;8.660;2023-04-01T12:08:50;11.34;80.43
69359;HTU21D;56520;49.066;8.660;2023-04-01T12:19:42;11.29;79.56
69359;HTU21D;56520;49.066;8.660;2023-04-01T12:33:33;11.66;79.71
69359;HTU21D;56520;49.066;8.660;2023-04-01T12:41:55;11.52;80.14
69359;HTU21D;56520;49.066;8.660;2023-04-01T12:47:06;11.05;80.25
69359;HTU21D;56520;49.066;8.660;2023-04-01T12:55:38;10.94;82.40
69359;HTU21D;56520;49.066;8.660;2023-04-01T13:06:41;11.13;81.43
69359;HTU21D;56520;49.066;8.660;2023-04-01T13:09:26;11.23;80.85
69359;HTU21D;56520;49.066;8.660;2023-04-01T13:20:39;11.05;80.69
69359;HTU21D;56520;49.066;8.660;2023-04-01T13:43:17;10.96;81.60
69359;HTU21D;56520;49.066;8.660;2023-04-01T13:57:15;10.80;80.72
69359;HTU21D;56520;49.066;8.660;2023-04-01T14:03:14;10.85;81.77
69359;HTU21D;56520;49.066;8.660;2023-04-01T14:14:23;11.02;81.83
69359;HTU21D;56520;49.066;8.660;2023-04-01T14:19:50;11.33;78.27
69359;HTU21D;56520;49.066;8.660;2023-04-01T14:30:58;11.34;79.56
69359;HTU21D;56520;49.066;8.660;2023-04-01T14:36:32;11.42;78.52
69359;HTU21D;56520;49.066;8.660;2023-04-01T14:39:33;11.38;78.99
69359;HTU21D;56520;49.066;8.660;2023-04-01T14:47:58;11.11;80.98
69359;HTU21D;56520;49.066;8.660;2023-04-01T14:50:27;11.00;80.56
69359;HTU21D;56520;49.066;8.660;2023-04-01T14:53:11;10.97;82.56
69359;HTU21D;56520;49.066;8.660;2023-04-01T14:58:14;10.98;81.85
69359;HTU21D;56520;49.066;8.660;2023-04-01T15:06:35;10.85;82.46
69359;HTU21D;56520;49.066;8.660;2023-04-01T15:15:01;10.73;82.37
69359;HTU21D;56520;49.066;8.660;2023-04-01T15:17:39;10.87;81.22
69359;HTU21D;56520;49.066;8.660;2023-04-01T15:33:50;10.90;81.57
69359;HTU21D;56520;49.066;8.660;2023-04-01T15:42:01;11.22;80.56
69359;HTU21D;56520;49.066;8.660;2023-04-01T15:47:33;11.36;80.14
69359;HTU21D;56520;49.066;8.660;2023-04-01T15:52:50;11.48;78.98
69359;HTU21D;56520;49.066;8.660;2023-04-01T15:55:57;11.39;79.15
69359;HTU21D;56520;49.066;8.660;2023-04-01T16:01:26;11.19;80.27
69359;HTU21D;56520;49.066;8.660;2023-04-01T16:13:12;11.09;79.82
69359;HTU21D;56520;49.066;8.660;2023-04-01T16:16:03;10.98;79.64
69359;HTU21D;56520;49.066;8.660;2023-04-01T16:18:39;10.90;80.43
69359;HTU21D;56520;49.066;8.660;2023-04-01T16:21:25;10.85;80.61
69359;HTU21D;56520;49.066;8.660;2023-04-01T16:24:03;10.90;80.57
69359;HTU21D;56520;49.066;8.660;2023-04-01T16:26:39;10.99;79.66
69359;HTU21D;56520;49.066;8.660;2023-04-01T16:29:17;10.95;80.09
69359;HTU21D;56520;49.066;8.660;2023-04-01T16:34:53;10.99;79.80
69359;HTU21D;56520;49.066;8.660;2023-04-01T16:37:20;10.92;80.40
69359;HTU21D;56520;49.066;8.660;2023-04-01T16:45:41;10.85;80.67
69359;HTU21D;56520;49.066;8.660;2023-04-01T16:48:20;10.92;79.55
69359;HTU21D;56520;49.066;8.660;2023-04-01T16:51:00;10.90;79.57
69359;HTU21D;56520;49.066;8.660;2023-04-01T16:53:43;10.97;79.71
69359;HTU21D;56520;49.066;8.660;2023-04-01T16:56:15;10.85;80.50
69359;HTU21D;56520;49.066;8.660;2023-04-01T16:58:56;10.84;80.69
69359;HTU21D;56520;49.066;8.660;2023-04-01T17:01:37;10.79;80.77
69359;HTU21D;56520;49.066;8.660;2023-04-01T17:07:23;10.73;80.78
69359;HTU21D;56520;49.066;8.660;2023-04-01T17:13:16;10.83;80.59
69359;HTU21D;56520;49.066;8.660;2023-04-01T17:16:26;10.83;80.71
69359;HTU21D;56520;49.066;8.660;2023-04-01T17:24:50;10.60;80.93
69359;HTU21D;56520;49.066;8.660;2023-04-01T17:41:26;10.25;81.78
69359;HTU21D;56520;49.066;8.660;2023-04-01T17:44:25;10.11;82.80
69359;HTU21D;56520;49.066;8.660;2023-04-01T17:54:52;9.91;83.45
69359;HTU21D;56520;49.066;8.660;2023-04-01T18:00:03;9.81;83.95
69359;HTU21D;56520;49.066;8.660;2023-04-01T18:04:01;9.72;84.23
69359;HTU21D;56520;49.066;8.660;2023-04-01T18:06:22;9.66;84.43
69359;HTU21D;56520;49.066;8.660;2023-04-01T18:22:48;9.68;84.05
69359;HTU21D;56520;49.066;8.660;2023-04-01T18:25:22;9.62;84.01
69359;HTU21D;56520;49.066;8.660;2023-04-01T18:28:22;9.60;83.77
69359;HTU21D;56520;49.066;8.660;2023-04-01T18:30:53;9.68;83.01
69359;HTU21D;56520;49.066;8.660;2023-04-01T18:38:53;9.67;82.71
69359;HTU21D;56520;49.066;8.660;2023-04-01T18:44:00;9.63;82.81
69359;HTU21D;56520;49.066;8.660;2023-04-01T18:46:46;9.65;82.71
69359;HTU21D;56520;49.066;8.660;2023-04-01T18:57:15;9.60;82.86
69359;HTU21D;56520;49.066;8.660;2023-04-01T18:59:45;9.65;82.47
69359;HTU21D;56520;49.066;8.660;2023-04-01T19:02:38;9.62;82.58
69359;HTU21D;56520;49.066;8.660;2023-04-01T19:05:12;9.56;83.15
69359;HTU21D;56520;49.066;8.660;2023-04-01T19:07:40;9.61;82.79
69359;HTU21D;56520;49.066;8.660;2023-04-01T19:12:56;9.61;82.68
69359;HTU21D;56520;49.066;8.660;2023-04-01T19:17:54;9.56;82.97
69359;HTU21D;56520;49.066;8.660;2023-04-01T19:25:58;9.47;83.29
69359;HTU21D;56520;49.066;8.660;2023-04-01T19:28:46;9.49;83.47
69359;HTU21D;56520;49.066;8.660;2023-04-01T19:36:58;9.62;82.70
69359;HTU21D;56520;49.066;8.660;2023-04-01T19:56:07;9.44;84.03
69359;HTU21D;56520;49.066;8.660;2023-04-01T19:58:55;9.39;84.28
69359;HTU21D;56520;49.066;8.660;2023-04-01T20:01:37;9.51;83.84
69359;HTU21D;56520;49.066;8.660;2023-04-01T20:04:13;9.55;83.22
69359;HTU21D;56520;49.066;8.660;2023-04-01T20:07:06;9.56;83.38
69359;HTU21D;56520;49.066;8.660;2023-04-01T20:15:07;9.56;83.36
69359;HTU21D;56520;49.066;8.660;2023-04-01T20:17:45;9.57;83.28
69359;HTU21D;56520;49.066;8.660;2023-04-01T20:25:26;9.60;83.09
69359;HTU21D;56520;49.066;8.660;2023-04-01T20:28:00;9.65;82.69
69359;HTU21D;56520;49.066;8.660;2023-04-01T20:38:59;9.66;82.59
69359;HTU21D;56520;49.066;8.660;2023-04-01T20:44:52;9.56;82.79
69359;HTU21D;56520;49.066;8.660;2023-04-01T20:53:11;9.61;82.42
69359;HTU21D;56520;49.066;8.660;2023-04-01T20:58:24;9.65;82.73
69359;HTU21D;56520;49.066;8.660;2023-04-01T21:03:48;9.54;83.53
69359;HTU21D;56520;49.066;8.660;2023-04-01T21:11:56;9.65;82.61
69359;HTU21D;56520;49.066;8.660;2023-04-01T21:22:53;9.62;83.10
69359;HTU21D;56520;49.066;8.660;2023-04-01T21:33:59;9.56;83.60
69359;HTU21D;56520;49.066;8.660;2023-04-01T21:46:09;9.52;82.93
69359;HTU21D;56520;49.066;8.660;2023-04-01T22:07:18;9.49;82.43
69359;HTU21D;56520;49.066;8.660;2023-04-01T22:10:10;9.46;82.65
69359;HTU21D;56520;49.066;8.660;2023-04-01T22:15:40;9.35;83.48
69359;HTU21D;56520;49.066;8.660;2023-04-01T22:18:13;9.31;83.63
69359;HTU21D;56520;49.066;8.660;2023-04-01T22:20:53;9.31;83.07
69359;HTU21D;56520;49.066;8.660;2023-04-01T22:23:46;9.25;83.49
69359;HTU21D;56520;49.066;8.660;2023-04-01T22:26:45;9.32;82.71
69359;HTU21D;56520;49.066;8.660;2023-04-01T22:29:44;9.27;82.93
69359;HTU21D;56520;49.066;8.660;2023-04-01T22:32:23;9.36;82.00
69359;HTU21D;56520;49.066;8.660;2023-04-01T22:37:37;9.30;82.66
69359;HTU21D;56520;49.066;8.660;2023-04-01T22:40:42;9.35;82.36
69359;HTU21D;56520;49.066;8.660;2023-04-01T22:43:30;9.24;82.78
69359;HTU21D;56520;49.066;8.660;2023-04-01T22:46:37;9.22;82.73
69359;HTU21D;56520;49.066;8.660;2023-04-01T22:49:22;9.22;82.82
69359;HTU21D;56520;49.066;8.660;2023-04-01T22:52:11;9.29;82.31
69359;HTU21D;56520;49.066;8.660;2023-04-01T22:54:46;9.27;82.20
69359;HTU21D;56520;49.066;8.660;2023-04-01T23:00:06;9.22;82.58
69359;HTU21D;56520;49.066;8.660;2023-04-01T23:03:32;9.23;82.78
69359;HTU21D;56520;49.066;8.660;2023-04-01T23:05:35;9.21;83.27
69359;HTU21D;56520;49.066;8.660;2023-04-01T23:10:46;9.25;82.89
69359;HTU21D;56520;49.066;8.660;2023-04-01T23:13:17;9.26;82.76
69359;HTU21D;56520;49.066;8.660;2023-04-01T23:15:43;9.24;82.77
69359;HTU21D;56520;49.066;8.660;2023-04-01T23:18:18;9.30;82.35
69359;HTU21D;56520;49.066;8.660;2023-04-01T23:26:59;9.29;82.32
69359;HTU21D;56520;49.066;8.660;2023-04-01T23:29:26;9.24;82.51
69359;HTU21D;56520;49.066;8.660;2023-04-01T23:32:10;9.29;82.25
69359;HTU21D;56520;49.066;8.660;2023-04-01T23:34:38;9.37;81.16
69359;HTU21D;56520;49.066;8.660;2023-04-01T23:37:10;9.44;80.76
69359;HTU21D;56520;49.066;8.660;2023-04-01T23:39:38;9.49;80.56
69359;HTU21D;56520;49.066;8.660;2023-04-01T23:42:06;9.46;80.88
69359;HTU21D;56520;49.066;8.660;2023-04-01T23:44:33;9.39;81.49
69359;HTU21D;56520;49.066;8.660;2023-04-01T23:47:00;9.37;81.74
69359;HTU21D;56520;49.066;8.660;2023-04-01T23:49:47;9.37;81.49
69359;HTU21D;56520;49.066;8.660;2023-04-01T23:52:17;9.44;81.01
